sensor_id;sensor_type;location;lat;lon;timestamp;P1;durP1;ratioP1;P2;durP2;ratioP2
16286;SDS011;8251;53.568;10.018;2023-07-20T00:01:36;1.90;;;1.20;;
16286;SDS011;8251;53.568;10.018;2023-07-20T00:04:03;0.90;;;0.90;;
16286;SDS011;8251;53.568;10.018;2023-07-20T00:06:30;1.27;;;1.17;;
16286;SDS011;8251;53.568;10.018;2023-07-20T00:08:57;1.83;;;1.00;;
16286;SDS011;8251;53.568;10.018;2023-07-20T00:11:26;5.37;;;1.40;;
16286;SDS011;8251;53.568;10.018;2023-07-20T00:13:53;0.90;;;0.90;;
16286;SDS011;8251;53.568;10.018;2023-07-20T00:16:21;2.47;;;0.83;;
16286;SDS011;8251;53.568;10.018;2023-07-20T00:18:47;1.33;;;0.80;;
16286;SDS011;8251;53.568;10.018;2023-07-20T00:21:14;1.70;;;0.90;;
16286;SDS011;8251;53.568;10.018;2023-07-20T00:23:41;1.20;;;1.00;;
16286;SDS011;8251;53.568;10.018;2023-07-20T00:28:55;1.67;;;0.77;;
16286;SDS011;8251;53.568;10.018;2023-07-20T00:31:21;1.00;;;0.80;;
16286;SDS011;8251;53.568;10.018;2023-07-20T00:33:48;1.53;;;1.10;;
16286;SDS011;8251;53.568;10.018;2023-07-20T00:36:15;2.23;;;1.10;;
16286;SDS011;8251;53.568;10.018;2023-07-20T00:38:42;2.60;;;1.00;;
16286;SDS011;8251;53.568;10.018;2023-07-20T00:41:09;1.20;;;1.10;;
16286;SDS011;8251;53.568;10.018;2023-07-20T00:43:37;6.40;;;0.90;;
16286;SDS011;8251;53.568;10.018;2023-07-20T00:46:04;3.30;;;1.00;;
16286;SDS011;8251;53.568;10.018;2023-07-20T00:48:31;2.23;;;0.93;;
16286;SDS011;8251;53.568;10.018;2023-07-20T00:50:58;1.83;;;1.00;;
16286;SDS011;8251;53.568;10.018;2023-07-20T00:53:26;2.10;;;1.10;;
16286;SDS011;8251;53.568;10.018;2023-07-20T00:55:54;1.67;;;1.00;;
16286;SDS011;8251;53.568;10.018;2023-07-20T00:58:22;1.50;;;1.07;;
16286;SDS011;8251;53.568;10.018;2023-07-20T01:00:51;2.17;;;1.20;;
16286;SDS011;8251;53.568;10.018;2023-07-20T01:03:18;1.13;;;1.00;;
16286;SDS011;8251;53.568;10.018;2023-07-20T01:05:47;3.47;;;1.10;;
16286;SDS011;8251;53.568;10.018;2023-07-20T01:08:20;1.57;;;1.20;;
16286;SDS011;8251;53.568;10.018;2023-07-20T01:10:54;2.47;;;1.40;;
16286;SDS011;8251;53.568;10.018;2023-07-20T01:13:27;4.60;;;1.77;;
16286;SDS011;8251;53.568;10.018;2023-07-20T01:15:57;3.63;;;1.67;;
16286;SDS011;8251;53.568;10.018;2023-07-20T01:18:27;1.70;;;1.40;;
16286;SDS011;8251;53.568;10.018;2023-07-20T01:20:54;4.40;;;1.50;;
16286;SDS011;8251;53.568;10.018;2023-07-20T01:23:34;2.90;;;1.23;;
16286;SDS011;8251;53.568;10.018;2023-07-20T01:26:27;2.43;;;1.40;;
16286;SDS011;8251;53.568;10.018;2023-07-20T01:29:11;3.57;;;1.40;;
16286;SDS011;8251;53.568;10.018;2023-07-20T01:31:49;3.67;;;1.53;;
16286;SDS011;8251;53.568;10.018;2023-07-20T01:34:19;2.10;;;1.93;;
16286;SDS011;8251;53.568;10.018;2023-07-20T01:36:48;2.00;;;1.37;;
16286;SDS011;8251;53.568;10.018;2023-07-20T01:39:17;2.17;;;1.70;;
16286;SDS011;8251;53.568;10.018;2023-07-20T01:41:46;2.93;;;1.80;;
16286;SDS011;8251;53.568;10.018;2023-07-20T01:44:13;1.77;;;1.60;;
16286;SDS011;8251;53.568;10.018;2023-07-20T01:46:40;1.83;;;1.70;;
16286;SDS011;8251;53.568;10.018;2023-07-20T01:49:08;2.20;;;1.90;;
16286;SDS011;8251;53.568;10.018;2023-07-20T01:51:35;4.70;;;1.97;;
16286;SDS011;8251;53.568;10.018;2023-07-20T01:54:02;3.60;;;2.03;;
16286;SDS011;8251;53.568;10.018;2023-07-20T01:56:29;3.67;;;1.67;;
16286;SDS011;8251;53.568;10.018;2023-07-20T01:58:55;2.60;;;1.90;;
16286;SDS011;8251;53.568;10.018;2023-07-20T02:01:22;2.80;;;1.50;;
16286;SDS011;8251;53.568;10.018;2023-07-20T02:03:49;2.30;;;1.77;;
16286;SDS011;8251;53.568;10.018;2023-07-20T02:06:17;3.27;;;1.60;;
16286;SDS011;8251;53.568;10.018;2023-07-20T02:08:44;1.60;;;1.50;;
16286;SDS011;8251;53.568;10.018;2023-07-20T02:11:10;2.73;;;1.60;;
16286;SDS011;8251;53.568;10.018;2023-07-20T02:13:37;3.53;;;1.57;;
16286;SDS011;8251;53.568;10.018;2023-07-20T02:16:04;2.40;;;1.60;;
16286;SDS011;8251;53.568;10.018;2023-07-20T02:18:31;5.13;;;1.93;;
16286;SDS011;8251;53.568;10.018;2023-07-20T02:20:58;2.20;;;2.00;;
16286;SDS011;8251;53.568;10.018;2023-07-20T02:23:26;5.83;;;1.77;;
16286;SDS011;8251;53.568;10.018;2023-07-20T02:25:53;3.97;;;1.77;;
16286;SDS011;8251;53.568;10.018;2023-07-20T02:28:19;3.40;;;1.77;;
16286;SDS011;8251;53.568;10.018;2023-07-20T02:30:46;3.30;;;1.90;;
16286;SDS011;8251;53.568;10.018;2023-07-20T02:33:14;2.00;;;1.70;;
16286;SDS011;8251;53.568;10.018;2023-07-20T02:35:41;2.07;;;1.80;;
16286;SDS011;8251;53.568;10.018;2023-07-20T02:38:08;2.03;;;1.83;;
16286;SDS011;8251;53.568;10.018;2023-07-20T02:40:36;1.97;;;1.60;;
16286;SDS011;8251;53.568;10.018;2023-07-20T02:43:02;2.43;;;1.60;;
16286;SDS011;8251;53.568;10.018;2023-07-20T02:45:29;2.63;;;1.57;;
16286;SDS011;8251;53.568;10.018;2023-07-20T02:47:56;1.77;;;1.50;;
16286;SDS011;8251;53.568;10.018;2023-07-20T02:50:22;3.70;;;1.57;;
16286;SDS011;8251;53.568;10.018;2023-07-20T02:52:49;1.60;;;1.50;;
16286;SDS011;8251;53.568;10.018;2023-07-20T02:55:17;3.80;;;2.00;;
16286;SDS011;8251;53.568;10.018;2023-07-20T02:57:45;2.00;;;1.77;;
16286;SDS011;8251;53.568;10.018;2023-07-20T03:00:13;1.63;;;1.30;;
16286;SDS011;8251;53.568;10.018;2023-07-20T03:02:41;1.93;;;1.73;;
16286;SDS011;8251;53.568;10.018;2023-07-20T03:05:08;1.97;;;1.37;;
16286;SDS011;8251;53.568;10.018;2023-07-20T03:07:35;2.20;;;1.83;;
16286;SDS011;8251;53.568;10.018;2023-07-20T03:10:02;1.57;;;1.47;;
16286;SDS011;8251;53.568;10.018;2023-07-20T03:12:32;1.77;;;1.67;;
16286;SDS011;8251;53.568;10.018;2023-07-20T03:15:01;3.97;;;1.70;;
16286;SDS011;8251;53.568;10.018;2023-07-20T03:17:28;2.00;;;1.50;;
16286;SDS011;8251;53.568;10.018;2023-07-20T03:19:55;2.40;;;1.30;;
16286;SDS011;8251;53.568;10.018;2023-07-20T03:22:22;3.97;;;1.63;;
16286;SDS011;8251;53.568;10.018;2023-07-20T03:24:49;3.77;;;1.43;;
16286;SDS011;8251;53.568;10.018;2023-07-20T03:27:17;2.83;;;1.67;;
16286;SDS011;8251;53.568;10.018;2023-07-20T03:29:44;1.73;;;1.60;;
16286;SDS011;8251;53.568;10.018;2023-07-20T03:32:12;2.17;;;1.97;;
16286;SDS011;8251;53.568;10.018;2023-07-20T03:34:38;1.83;;;1.63;;
16286;SDS011;8251;53.568;10.018;2023-07-20T03:37:06;1.93;;;1.67;;
16286;SDS011;8251;53.568;10.018;2023-07-20T03:39:33;2.77;;;1.60;;
16286;SDS011;8251;53.568;10.018;2023-07-20T03:42:00;1.37;;;1.20;;
16286;SDS011;8251;53.568;10.018;2023-07-20T03:44:27;2.20;;;1.70;;
16286;SDS011;8251;53.568;10.018;2023-07-20T03:46:54;2.47;;;1.30;;
16286;SDS011;8251;53.568;10.018;2023-07-20T03:49:22;4.33;;;1.60;;
16286;SDS011;8251;53.568;10.018;2023-07-20T03:51:49;2.00;;;1.87;;
16286;SDS011;8251;53.568;10.018;2023-07-20T03:54:16;1.30;;;1.20;;
16286;SDS011;8251;53.568;10.018;2023-07-20T03:56:44;2.60;;;1.30;;
16286;SDS011;8251;53.568;10.018;2023-07-20T03:59:10;1.47;;;1.37;;
16286;SDS011;8251;53.568;10.018;2023-07-20T04:01:37;1.50;;;1.40;;
16286;SDS011;8251;53.568;10.018;2023-07-20T04:04:05;1.83;;;1.43;;
16286;SDS011;8251;53.568;10.018;2023-07-20T04:06:34;1.90;;;1.50;;
16286;SDS011;8251;53.568;10.018;2023-07-20T04:09:02;2.33;;;1.80;;
16286;SDS011;8251;53.568;10.018;2023-07-20T04:11:30;2.17;;;1.93;;
16286;SDS011;8251;53.568;10.018;2023-07-20T04:13:57;1.73;;;1.63;;
16286;SDS011;8251;53.568;10.018;2023-07-20T04:16:24;2.80;;;1.80;;
16286;SDS011;8251;53.568;10.018;2023-07-20T04:18:51;1.90;;;1.80;;
16286;SDS011;8251;53.568;10.018;2023-07-20T04:21:17;2.50;;;2.30;;
16286;SDS011;8251;53.568;10.018;2023-07-20T04:23:46;2.50;;;1.73;;
16286;SDS011;8251;53.568;10.018;2023-07-20T04:26:12;4.17;;;1.83;;
16286;SDS011;8251;53.568;10.018;2023-07-20T04:28:39;2.13;;;1.80;;
16286;SDS011;8251;53.568;10.018;2023-07-20T04:31:10;2.77;;;1.80;;
16286;SDS011;8251;53.568;10.018;2023-07-20T04:33:38;4.03;;;2.00;;
16286;SDS011;8251;53.568;10.018;2023-07-20T04:36:05;3.07;;;1.90;;
16286;SDS011;8251;53.568;10.018;2023-07-20T04:38:34;2.13;;;1.93;;
16286;SDS011;8251;53.568;10.018;2023-07-20T04:41:02;1.67;;;1.57;;
16286;SDS011;8251;53.568;10.018;2023-07-20T04:43:29;2.07;;;1.60;;
16286;SDS011;8251;53.568;10.018;2023-07-20T04:45:56;2.47;;;1.40;;
16286;SDS011;8251;53.568;10.018;2023-07-20T04:48:23;3.53;;;1.80;;
16286;SDS011;8251;53.568;10.018;2023-07-20T04:50:50;1.43;;;1.33;;
16286;SDS011;8251;53.568;10.018;2023-07-20T04:53:17;1.50;;;1.40;;
16286;SDS011;8251;53.568;10.018;2023-07-20T04:55:47;1.70;;;1.20;;
16286;SDS011;8251;53.568;10.018;2023-07-20T04:58:18;2.50;;;1.13;;
16286;SDS011;8251;53.568;10.018;2023-07-20T05:00:45;1.83;;;1.30;;
16286;SDS011;8251;53.568;10.018;2023-07-20T05:03:12;1.47;;;1.30;;
16286;SDS011;8251;53.568;10.018;2023-07-20T05:05:39;1.53;;;1.37;;
16286;SDS011;8251;53.568;10.018;2023-07-20T05:08:05;1.80;;;1.30;;
16286;SDS011;8251;53.568;10.018;2023-07-20T05:10:32;2.63;;;1.17;;
16286;SDS011;8251;53.568;10.018;2023-07-20T05:12:59;2.30;;;1.47;;
16286;SDS011;8251;53.568;10.018;2023-07-20T05:15:27;1.70;;;1.50;;
16286;SDS011;8251;53.568;10.018;2023-07-20T05:17:54;2.40;;;1.40;;
16286;SDS011;8251;53.568;10.018;2023-07-20T05:20:21;2.57;;;1.47;;
16286;SDS011;8251;53.568;10.018;2023-07-20T05:22:47;2.67;;;1.60;;
16286;SDS011;8251;53.568;10.018;2023-07-20T05:25:17;3.33;;;1.40;;
16286;SDS011;8251;53.568;10.018;2023-07-20T05:27:44;2.10;;;1.90;;
16286;SDS011;8251;53.568;10.018;2023-07-20T05:30:11;2.00;;;1.77;;
16286;SDS011;8251;53.568;10.018;2023-07-20T05:32:39;2.20;;;1.70;;
16286;SDS011;8251;53.568;10.018;2023-07-20T05:35:07;3.47;;;1.80;;
16286;SDS011;8251;53.568;10.018;2023-07-20T05:37:36;2.43;;;1.73;;
16286;SDS011;8251;53.568;10.018;2023-07-20T05:40:04;4.17;;;3.63;;
16286;SDS011;8251;53.568;10.018;2023-07-20T05:42:32;2.80;;;2.47;;
16286;SDS011;8251;53.568;10.018;2023-07-20T05:45:01;3.13;;;2.73;;
16286;SDS011;8251;53.568;10.018;2023-07-20T05:47:29;4.23;;;2.63;;
16286;SDS011;8251;53.568;10.018;2023-07-20T05:49:57;2.40;;;2.00;;
16286;SDS011;8251;53.568;10.018;2023-07-20T05:52:24;2.00;;;1.90;;
16286;SDS011;8251;53.568;10.018;2023-07-20T05:54:52;3.27;;;1.87;;
16286;SDS011;8251;53.568;10.018;2023-07-20T05:57:21;2.00;;;1.90;;
16286;SDS011;8251;53.568;10.018;2023-07-20T05:59:48;2.03;;;1.93;;
16286;SDS011;8251;53.568;10.018;2023-07-20T06:02:16;4.17;;;1.73;;
16286;SDS011;8251;53.568;10.018;2023-07-20T06:04:42;3.23;;;1.70;;
16286;SDS011;8251;53.568;10.018;2023-07-20T06:07:14;1.90;;;1.80;;
16286;SDS011;8251;53.568;10.018;2023-07-20T06:09:41;4.53;;;2.27;;
16286;SDS011;8251;53.568;10.018;2023-07-20T06:12:08;3.00;;;1.50;;
16286;SDS011;8251;53.568;10.018;2023-07-20T06:14:36;2.93;;;1.60;;
16286;SDS011;8251;53.568;10.018;2023-07-20T06:17:03;1.87;;;1.63;;
16286;SDS011;8251;53.568;10.018;2023-07-20T06:19:30;1.57;;;1.17;;
16286;SDS011;8251;53.568;10.018;2023-07-20T06:21:57;1.57;;;1.47;;
16286;SDS011;8251;53.568;10.018;2023-07-20T06:24:25;2.80;;;1.70;;
16286;SDS011;8251;53.568;10.018;2023-07-20T06:26:52;2.30;;;1.40;;
16286;SDS011;8251;53.568;10.018;2023-07-20T06:29:19;4.50;;;1.60;;
16286;SDS011;8251;53.568;10.018;2023-07-20T06:31:47;3.10;;;1.70;;
16286;SDS011;8251;53.568;10.018;2023-07-20T06:34:14;2.07;;;1.37;;
16286;SDS011;8251;53.568;10.018;2023-07-20T06:36:40;1.50;;;1.40;;
16286;SDS011;8251;53.568;10.018;2023-07-20T06:39:07;2.67;;;1.20;;
16286;SDS011;8251;53.568;10.018;2023-07-20T06:41:36;4.20;;;1.43;;
16286;SDS011;8251;53.568;10.018;2023-07-20T06:44:02;1.73;;;1.43;;
16286;SDS011;8251;53.568;10.018;2023-07-20T06:46:31;1.43;;;1.10;;
16286;SDS011;8251;53.568;10.018;2023-07-20T06:48:58;4.20;;;1.17;;
16286;SDS011;8251;53.568;10.018;2023-07-20T06:51:27;1.90;;;0.90;;
16286;SDS011;8251;53.568;10.018;2023-07-20T06:54:00;2.30;;;1.33;;
16286;SDS011;8251;53.568;10.018;2023-07-20T06:56:33;1.70;;;1.00;;
16286;SDS011;8251;53.568;10.018;2023-07-20T06:59:02;2.53;;;1.30;;
16286;SDS011;8251;53.568;10.018;2023-07-20T07:01:29;6.47;;;2.30;;
16286;SDS011;8251;53.568;10.018;2023-07-20T07:03:56;3.07;;;1.23;;
16286;SDS011;8251;53.568;10.018;2023-07-20T07:06:22;2.13;;;1.10;;
16286;SDS011;8251;53.568;10.018;2023-07-20T07:08:49;2.60;;;1.10;;
16286;SDS011;8251;53.568;10.018;2023-07-20T07:11:16;2.27;;;0.80;;
16286;SDS011;8251;53.568;10.018;2023-07-20T07:13:45;3.57;;;1.30;;
16286;SDS011;8251;53.568;10.018;2023-07-20T07:16:22;3.47;;;1.07;;
16286;SDS011;8251;53.568;10.018;2023-07-20T07:18:55;1.43;;;1.20;;
16286;SDS011;8251;53.568;10.018;2023-07-20T07:21:22;2.93;;;1.03;;
16286;SDS011;8251;53.568;10.018;2023-07-20T07:23:48;5.03;;;1.93;;
16286;SDS011;8251;53.568;10.018;2023-07-20T07:26:18;2.13;;;0.80;;
16286;SDS011;8251;53.568;10.018;2023-07-20T07:28:44;5.30;;;0.97;;
16286;SDS011;8251;53.568;10.018;2023-07-20T07:31:11;3.17;;;1.10;;
16286;SDS011;8251;53.568;10.018;2023-07-20T07:33:39;3.27;;;1.10;;
16286;SDS011;8251;53.568;10.018;2023-07-20T07:36:06;2.90;;;1.07;;
16286;SDS011;8251;53.568;10.018;2023-07-20T07:38:33;2.20;;;1.00;;
16286;SDS011;8251;53.568;10.018;2023-07-20T07:41:01;1.47;;;1.00;;
16286;SDS011;8251;53.568;10.018;2023-07-20T07:43:32;5.03;;;1.30;;
16286;SDS011;8251;53.568;10.018;2023-07-20T07:46:00;2.50;;;1.10;;
16286;SDS011;8251;53.568;10.018;2023-07-20T07:48:27;3.20;;;1.40;;
16286;SDS011;8251;53.568;10.018;2023-07-20T07:50:56;4.60;;;1.43;;
16286;SDS011;8251;53.568;10.018;2023-07-20T07:53:23;2.67;;;1.20;;
16286;SDS011;8251;53.568;10.018;2023-07-20T07:55:51;2.13;;;1.40;;
16286;SDS011;8251;53.568;10.018;2023-07-20T07:58:18;3.60;;;1.53;;
16286;SDS011;8251;53.568;10.018;2023-07-20T08:00:46;1.37;;;1.20;;
16286;SDS011;8251;53.568;10.018;2023-07-20T08:03:13;5.77;;;1.53;;
16286;SDS011;8251;53.568;10.018;2023-07-20T08:05:40;4.50;;;1.47;;
16286;SDS011;8251;53.568;10.018;2023-07-20T08:08:09;5.60;;;1.90;;
16286;SDS011;8251;53.568;10.018;2023-07-20T08:10:35;3.87;;;1.77;;
16286;SDS011;8251;53.568;10.018;2023-07-20T08:13:02;4.07;;;2.93;;
16286;SDS011;8251;53.568;10.018;2023-07-20T08:15:29;5.20;;;1.83;;
16286;SDS011;8251;53.568;10.018;2023-07-20T08:17:56;3.37;;;1.50;;
16286;SDS011;8251;53.568;10.018;2023-07-20T08:20:22;5.53;;;1.77;;
16286;SDS011;8251;53.568;10.018;2023-07-20T08:22:53;7.10;;;2.10;;
16286;SDS011;8251;53.568;10.018;2023-07-20T08:25:21;5.43;;;1.70;;
16286;SDS011;8251;53.568;10.018;2023-07-20T08:27:48;5.87;;;1.67;;
16286;SDS011;8251;53.568;10.018;2023-07-20T08:30:15;2.80;;;1.57;;
16286;SDS011;8251;53.568;10.018;2023-07-20T08:32:42;3.65;;;1.75;;
16286;SDS011;8251;53.568;10.018;2023-07-20T08:35:12;5.88;;;1.75;;
16286;SDS011;8251;53.568;10.018;2023-07-20T08:37:48;3.88;;;1.90;;
16286;SDS011;8251;53.568;10.018;2023-07-20T08:40:22;3.72;;;1.70;;
16286;SDS011;8251;53.568;10.018;2023-07-20T08:42:48;6.07;;;1.70;;
16286;SDS011;8251;53.568;10.018;2023-07-20T08:45:16;7.60;;;1.58;;
16286;SDS011;8251;53.568;10.018;2023-07-20T08:47:44;4.15;;;1.38;;
16286;SDS011;8251;53.568;10.018;2023-07-20T08:50:14;7.65;;;1.95;;
16286;SDS011;8251;53.568;10.018;2023-07-20T08:52:42;4.95;;;2.85;;
16286;SDS011;8251;53.568;10.018;2023-07-20T08:55:09;3.30;;;2.42;;
16286;SDS011;8251;53.568;10.018;2023-07-20T08:57:38;3.60;;;2.30;;
16286;SDS011;8251;53.568;10.018;2023-07-20T09:00:07;5.05;;;1.90;;
16286;SDS011;8251;53.568;10.018;2023-07-20T09:02:38;6.47;;;2.20;;
16286;SDS011;8251;53.568;10.018;2023-07-20T09:05:06;3.70;;;1.80;;
16286;SDS011;8251;53.568;10.018;2023-07-20T09:07:35;4.85;;;1.83;;
16286;SDS011;8251;53.568;10.018;2023-07-20T09:10:02;4.93;;;2.45;;
16286;SDS011;8251;53.568;10.018;2023-07-20T09:12:34;5.72;;;1.60;;
16286;SDS011;8251;53.568;10.018;2023-07-20T09:15:03;4.63;;;1.60;;
16286;SDS011;8251;53.568;10.018;2023-07-20T09:17:31;4.18;;;2.65;;
16286;SDS011;8251;53.568;10.018;2023-07-20T09:19:58;6.95;;;1.77;;
16286;SDS011;8251;53.568;10.018;2023-07-20T09:22:30;8.07;;;2.22;;
16286;SDS011;8251;53.568;10.018;2023-07-20T09:24:57;7.82;;;1.50;;
16286;SDS011;8251;53.568;10.018;2023-07-20T09:27:29;1.98;;;1.45;;
16286;SDS011;8251;53.568;10.018;2023-07-20T09:30:04;6.28;;;1.75;;
16286;SDS011;8251;53.568;10.018;2023-07-20T09:32:32;5.05;;;1.40;;
16286;SDS011;8251;53.568;10.018;2023-07-20T09:35:05;4.07;;;1.67;;
16286;SDS011;8251;53.568;10.018;2023-07-20T09:37:33;4.05;;;1.90;;
16286;SDS011;8251;53.568;10.018;2023-07-20T09:40:00;2.17;;;1.10;;
16286;SDS011;8251;53.568;10.018;2023-07-20T09:42:26;2.33;;;1.15;;
16286;SDS011;8251;53.568;10.018;2023-07-20T09:44:53;3.35;;;1.05;;
16286;SDS011;8251;53.568;10.018;2023-07-20T09:47:23;2.53;;;1.20;;
16286;SDS011;8251;53.568;10.018;2023-07-20T09:49:57;5.53;;;1.00;;
16286;SDS011;8251;53.568;10.018;2023-07-20T09:52:25;4.95;;;1.48;;
16286;SDS011;8251;53.568;10.018;2023-07-20T09:54:52;2.15;;;0.90;;
16286;SDS011;8251;53.568;10.018;2023-07-20T09:57:21;1.63;;;0.80;;
16286;SDS011;8251;53.568;10.018;2023-07-20T09:59:48;3.15;;;1.00;;
16286;SDS011;8251;53.568;10.018;2023-07-20T10:02:17;2.47;;;1.00;;
16286;SDS011;8251;53.568;10.018;2023-07-20T10:04:48;3.45;;;0.90;;
16286;SDS011;8251;53.568;10.018;2023-07-20T10:07:19;1.65;;;0.60;;
16286;SDS011;8251;53.568;10.018;2023-07-20T10:09:48;1.83;;;0.85;;
16286;SDS011;8251;53.568;10.018;2023-07-20T10:12:19;4.57;;;1.00;;
16286;SDS011;8251;53.568;10.018;2023-07-20T10:14:50;2.25;;;0.80;;
16286;SDS011;8251;53.568;10.018;2023-07-20T10:17:25;1.73;;;0.80;;
16286;SDS011;8251;53.568;10.018;2023-07-20T10:19:54;3.83;;;1.15;;
16286;SDS011;8251;53.568;10.018;2023-07-20T10:22:24;1.38;;;0.85;;
16286;SDS011;8251;53.568;10.018;2023-07-20T10:24:52;4.82;;;1.60;;
16286;SDS011;8251;53.568;10.018;2023-07-20T10:27:23;2.22;;;1.40;;
16286;SDS011;8251;53.568;10.018;2023-07-20T10:29:50;2.72;;;0.80;;
16286;SDS011;8251;53.568;10.018;2023-07-20T10:32:17;1.77;;;1.05;;
16286;SDS011;8251;53.568;10.018;2023-07-20T10:34:49;3.75;;;2.38;;
16286;SDS011;8251;53.568;10.018;2023-07-20T10:40:27;3.85;;;1.05;;
16286;SDS011;8251;53.568;10.018;2023-07-20T10:43:01;1.83;;;0.68;;
16286;SDS011;8251;53.568;10.018;2023-07-20T10:45:36;1.60;;;0.80;;
16286;SDS011;8251;53.568;10.018;2023-07-20T10:48:09;0.60;;;0.60;;
16286;SDS011;8251;53.568;10.018;2023-07-20T10:50:41;2.42;;;0.70;;
16286;SDS011;8251;53.568;10.018;2023-07-20T10:53:17;1.70;;;1.15;;
16286;SDS011;8251;53.568;10.018;2023-07-20T10:55:45;1.75;;;0.80;;
16286;SDS011;8251;53.568;10.018;2023-07-20T10:58:15;1.85;;;0.90;;
16286;SDS011;8251;53.568;10.018;2023-07-20T11:00:55;4.00;;;1.20;;
16286;SDS011;8251;53.568;10.018;2023-07-20T11:03:28;5.10;;;1.00;;
16286;SDS011;8251;53.568;10.018;2023-07-20T11:05:58;3.15;;;0.70;;
16286;SDS011;8251;53.568;10.018;2023-07-20T11:11:24;2.45;;;0.70;;
16286;SDS011;8251;53.568;10.018;2023-07-20T11:13:55;1.27;;;0.90;;
16286;SDS011;8251;53.568;10.018;2023-07-20T11:16:33;3.47;;;0.77;;
16286;SDS011;8251;53.568;10.018;2023-07-20T11:19:02;2.65;;;0.80;;
16286;SDS011;8251;53.568;10.018;2023-07-20T11:21:29;1.38;;;0.70;;
16286;SDS011;8251;53.568;10.018;2023-07-20T11:24:04;1.77;;;0.50;;
16286;SDS011;8251;53.568;10.018;2023-07-20T11:26:39;1.35;;;0.75;;
16286;SDS011;8251;53.568;10.018;2023-07-20T11:29:07;2.15;;;1.02;;
16286;SDS011;8251;53.568;10.018;2023-07-20T11:31:34;1.33;;;0.50;;
16286;SDS011;8251;53.568;10.018;2023-07-20T11:34:03;2.10;;;0.70;;
16286;SDS011;8251;53.568;10.018;2023-07-20T11:36:30;0.85;;;0.43;;
16286;SDS011;8251;53.568;10.018;2023-07-20T11:38:58;0.90;;;0.70;;
16286;SDS011;8251;53.568;10.018;2023-07-20T11:41:26;2.05;;;0.60;;
16286;SDS011;8251;53.568;10.018;2023-07-20T11:43:53;1.17;;;1.08;;
16286;SDS011;8251;53.568;10.018;2023-07-20T11:46:21;1.35;;;0.70;;
16286;SDS011;8251;53.568;10.018;2023-07-20T11:48:48;3.67;;;0.70;;
16286;SDS011;8251;53.568;10.018;2023-07-20T11:51:15;1.77;;;0.77;;
16286;SDS011;8251;53.568;10.018;2023-07-20T11:53:42;1.23;;;0.80;;
16286;SDS011;8251;53.568;10.018;2023-07-20T11:56:11;2.45;;;0.73;;
16286;SDS011;8251;53.568;10.018;2023-07-20T11:58:42;2.63;;;1.30;;
16286;SDS011;8251;53.568;10.018;2023-07-20T12:01:11;6.30;;;0.70;;
16286;SDS011;8251;53.568;10.018;2023-07-20T12:03:38;3.88;;;0.73;;
16286;SDS011;8251;53.568;10.018;2023-07-20T12:06:08;1.83;;;1.00;;
16286;SDS011;8251;53.568;10.018;2023-07-20T12:08:37;1.58;;;0.68;;
16286;SDS011;8251;53.568;10.018;2023-07-20T12:11:06;3.92;;;0.60;;
16286;SDS011;8251;53.568;10.018;2023-07-20T12:13:37;1.60;;;0.80;;
16286;SDS011;8251;53.568;10.018;2023-07-20T12:16:12;1.67;;;0.98;;
16286;SDS011;8251;53.568;10.018;2023-07-20T12:18:40;0.88;;;0.77;;
16286;SDS011;8251;53.568;10.018;2023-07-20T12:21:07;1.92;;;0.90;;
16286;SDS011;8251;53.568;10.018;2023-07-20T12:23:35;0.90;;;0.80;;
16286;SDS011;8251;53.568;10.018;2023-07-20T12:26:05;3.17;;;1.50;;
16286;SDS011;8251;53.568;10.018;2023-07-20T12:28:33;3.80;;;1.75;;
16286;SDS011;8251;53.568;10.018;2023-07-20T12:31:04;1.52;;;0.90;;
16286;SDS011;8251;53.568;10.018;2023-07-20T12:33:33;0.75;;;0.73;;
16286;SDS011;8251;53.568;10.018;2023-07-20T12:35:59;3.30;;;1.20;;
16286;SDS011;8251;53.568;10.018;2023-07-20T12:38:29;3.17;;;1.27;;
16286;SDS011;8251;53.568;10.018;2023-07-20T12:41:00;1.52;;;0.90;;
16286;SDS011;8251;53.568;10.018;2023-07-20T12:43:27;3.42;;;1.05;;
16286;SDS011;8251;53.568;10.018;2023-07-20T12:45:55;2.95;;;0.90;;
16286;SDS011;8251;53.568;10.018;2023-07-20T12:48:22;2.80;;;2.03;;
16286;SDS011;8251;53.568;10.018;2023-07-20T12:50:50;4.10;;;1.15;;
16286;SDS011;8251;53.568;10.018;2023-07-20T12:53:17;8.10;;;1.42;;
16286;SDS011;8251;53.568;10.018;2023-07-20T12:55:44;3.40;;;1.35;;
16286;SDS011;8251;53.568;10.018;2023-07-20T12:58:11;3.90;;;0.95;;
16286;SDS011;8251;53.568;10.018;2023-07-20T13:00:38;4.63;;;1.40;;
16286;SDS011;8251;53.568;10.018;2023-07-20T13:03:05;5.60;;;1.45;;
16286;SDS011;8251;53.568;10.018;2023-07-20T13:05:33;1.25;;;0.82;;
16286;SDS011;8251;53.568;10.018;2023-07-20T13:08:02;1.38;;;0.80;;
16286;SDS011;8251;53.568;10.018;2023-07-20T13:10:30;2.75;;;1.10;;
16286;SDS011;8251;53.568;10.018;2023-07-20T13:12:57;2.17;;;0.80;;
16286;SDS011;8251;53.568;10.018;2023-07-20T13:15:29;1.15;;;0.65;;
16286;SDS011;8251;53.568;10.018;2023-07-20T13:17:57;5.82;;;1.10;;
16286;SDS011;8251;53.568;10.018;2023-07-20T13:20:25;1.20;;;1.10;;
16286;SDS011;8251;53.568;10.018;2023-07-20T13:22:53;6.68;;;0.90;;
16286;SDS011;8251;53.568;10.018;2023-07-20T13:25:23;4.03;;;1.05;;
16286;SDS011;8251;53.568;10.018;2023-07-20T13:27:57;1.83;;;1.02;;
16286;SDS011;8251;53.568;10.018;2023-07-20T13:30:29;3.20;;;1.60;;
16286;SDS011;8251;53.568;10.018;2023-07-20T13:32:56;1.17;;;1.00;;
16286;SDS011;8251;53.568;10.018;2023-07-20T13:35:22;2.78;;;0.80;;
16286;SDS011;8251;53.568;10.018;2023-07-20T13:37:49;1.63;;;0.90;;
16286;SDS011;8251;53.568;10.018;2023-07-20T13:40:16;2.95;;;1.05;;
16286;SDS011;8251;53.568;10.018;2023-07-20T13:42:46;2.55;;;1.40;;
16286;SDS011;8251;53.568;10.018;2023-07-20T13:45:12;2.05;;;1.23;;
16286;SDS011;8251;53.568;10.018;2023-07-20T13:47:39;0.98;;;0.85;;
16286;SDS011;8251;53.568;10.018;2023-07-20T13:50:06;3.22;;;0.70;;
16286;SDS011;8251;53.568;10.018;2023-07-20T13:52:33;2.17;;;0.93;;
16286;SDS011;8251;53.568;10.018;2023-07-20T13:55:00;1.77;;;1.25;;
16286;SDS011;8251;53.568;10.018;2023-07-20T13:57:27;2.45;;;0.93;;
16286;SDS011;8251;53.568;10.018;2023-07-20T13:59:56;2.15;;;0.70;;
16286;SDS011;8251;53.568;10.018;2023-07-20T14:02:25;4.88;;;1.15;;
16286;SDS011;8251;53.568;10.018;2023-07-20T14:04:51;2.15;;;0.95;;
16286;SDS011;8251;53.568;10.018;2023-07-20T14:07:22;2.20;;;0.75;;
16286;SDS011;8251;53.568;10.018;2023-07-20T14:09:49;1.77;;;0.70;;
16286;SDS011;8251;53.568;10.018;2023-07-20T14:12:15;1.25;;;0.95;;
16286;SDS011;8251;53.568;10.018;2023-07-20T14:14:43;5.60;;;0.80;;
16286;SDS011;8251;53.568;10.018;2023-07-20T14:17:11;2.50;;;0.68;;
16286;SDS011;8251;53.568;10.018;2023-07-20T14:19:38;4.75;;;2.63;;
16286;SDS011;8251;53.568;10.018;2023-07-20T14:22:05;1.75;;;0.80;;
16286;SDS011;8251;53.568;10.018;2023-07-20T14:24:32;3.30;;;0.90;;
16286;SDS011;8251;53.568;10.018;2023-07-20T14:26:59;2.05;;;1.05;;
16286;SDS011;8251;53.568;10.018;2023-07-20T14:29:26;2.17;;;0.82;;
16286;SDS011;8251;53.568;10.018;2023-07-20T14:31:56;2.78;;;0.60;;
16286;SDS011;8251;53.568;10.018;2023-07-20T14:34:24;4.13;;;0.90;;
16286;SDS011;8251;53.568;10.018;2023-07-20T14:36:51;1.85;;;0.75;;
16286;SDS011;8251;53.568;10.018;2023-07-20T14:39:18;1.48;;;0.88;;
16286;SDS011;8251;53.568;10.018;2023-07-20T14:41:45;1.80;;;1.10;;
16286;SDS011;8251;53.568;10.018;2023-07-20T14:44:12;1.55;;;0.82;;
16286;SDS011;8251;53.568;10.018;2023-07-20T14:46:39;3.55;;;0.80;;
16286;SDS011;8251;53.568;10.018;2023-07-20T14:49:06;3.72;;;0.95;;
16286;SDS011;8251;53.568;10.018;2023-07-20T14:51:34;1.80;;;0.80;;
16286;SDS011;8251;53.568;10.018;2023-07-20T14:54:07;4.00;;;0.88;;
16286;SDS011;8251;53.568;10.018;2023-07-20T14:56:34;2.45;;;1.10;;
16286;SDS011;8251;53.568;10.018;2023-07-20T14:59:02;3.08;;;1.10;;
16286;SDS011;8251;53.568;10.018;2023-07-20T15:01:31;1.50;;;0.73;;
16286;SDS011;8251;53.568;10.018;2023-07-20T15:04:00;1.65;;;0.90;;